sensor_id;sensor_type;location;lat;lon;timestamp;P1;durP1;ratioP1;P2;durP2;ratioP2
24301;SDS011;12421;49.732;20.078;2022-10-16T00:07:23;27.80;;;16.50;;
24301;SDS011;12421;49.732;20.078;2022-10-16T00:17:29;30.00;;;20.00;;
24301;SDS011;12421;49.732;20.078;2022-10-16T00:27:33;31.50;;;21.50;;
24301;SDS011;12421;49.732;20.078;2022-10-16T00:37:37;28.50;;;20.40;;
24301;SDS011;12421;49.732;20.078;2022-10-16T00:47:41;63.50;;;38.10;;
24301;SDS011;12421;49.732;20.078;2022-10-16T00:57:49;98.20;;;57.40;;
24301;SDS011;12421;49.732;20.078;2022-10-16T01:08:13;78.50;;;48.10;;
24301;SDS011;12421;49.732;20.078;2022-10-16T01:18:30;61.00;;;37.40;;
24301;SDS011;12421;49.732;20.078;2022-10-16T01:28:46;32.00;;;21.40;;
24301;SDS011;12421;49.732;20.078;2022-10-16T01:38:54;26.30;;;16.20;;
24301;SDS011;12421;49.732;20.078;2022-10-16T01:49:03;27.90;;;15.90;;
24301;SDS011;12421;49.732;20.078;2022-10-16T01:59:10;19.40;;;11.80;;
24301;SDS011;12421;49.732;20.078;2022-10-16T02:09:17;12.90;;;10.20;;
24301;SDS011;12421;49.732;20.078;2022-10-16T02:19:21;14.80;;;11.00;;
24301;SDS011;12421;49.732;20.078;2022-10-16T02:29:26;11.30;;;9.50;;
24301;SDS011;12421;49.732;20.078;2022-10-16T02:39:30;13.60;;;8.90;;
24301;SDS011;12421;49.732;20.078;2022-10-16T02:49:34;13.00;;;9.90;;
24301;SDS011;12421;49.732;20.078;2022-10-16T02:59:38;11.90;;;9.70;;
24301;SDS011;12421;49.732;20.078;2022-10-16T03:09:42;12.60;;;8.10;;
24301;SDS011;12421;49.732;20.078;2022-10-16T03:19:45;20.40;;;8.40;;
24301;SDS011;12421;49.732;20.078;2022-10-16T03:29:49;12.00;;;8.60;;
24301;SDS011;12421;49.732;20.078;2022-10-16T03:39:52;15.70;;;8.70;;
24301;SDS011;12421;49.732;20.078;2022-10-16T03:49:56;10.60;;;7.50;;
24301;SDS011;12421;49.732;20.078;2022-10-16T04:00:00;11.40;;;9.00;;
24301;SDS011;12421;49.732;20.078;2022-10-16T04:10:13;13.10;;;8.50;;
24301;SDS011;12421;49.732;20.078;2022-10-16T04:20:17;9.60;;;7.70;;
24301;SDS011;12421;49.732;20.078;2022-10-16T04:30:22;18.80;;;8.00;;
24301;SDS011;12421;49.732;20.078;2022-10-16T04:40:26;10.30;;;7.70;;
24301;SDS011;12421;49.732;20.078;2022-10-16T04:50:30;11.80;;;7.70;;
24301;SDS011;12421;49.732;20.078;2022-10-16T05:00:40;11.10;;;8.10;;
24301;SDS011;12421;49.732;20.078;2022-10-16T05:10:44;13.70;;;7.90;;
24301;SDS011;12421;49.732;20.078;2022-10-16T05:20:48;12.50;;;8.50;;
24301;SDS011;12421;49.732;20.078;2022-10-16T05:30:52;11.20;;;8.40;;
24301;SDS011;12421;49.732;20.078;2022-10-16T05:40:56;16.60;;;8.90;;
24301;SDS011;12421;49.732;20.078;2022-10-16T05:51:04;11.80;;;8.30;;
24301;SDS011;12421;49.732;20.078;2022-10-16T06:01:11;13.40;;;7.90;;
24301;SDS011;12421;49.732;20.078;2022-10-16T06:11:28;18.60;;;9.30;;
24301;SDS011;12421;49.732;20.078;2022-10-16T06:21:34;12.60;;;7.60;;
24301;SDS011;12421;49.732;20.078;2022-10-16T06:31:38;10.40;;;8.30;;
24301;SDS011;12421;49.732;20.078;2022-10-16T06:41:41;11.00;;;8.30;;
24301;SDS011;12421;49.732;20.078;2022-10-16T06:51:54;11.50;;;9.50;;
24301;SDS011;12421;49.732;20.078;2022-10-16T07:01:58;11.60;;;8.10;;
24301;SDS011;12421;49.732;20.078;2022-10-16T07:12:02;13.30;;;7.90;;
24301;SDS011;12421;49.732;20.078;2022-10-16T07:22:06;11.80;;;8.30;;
24301;SDS011;12421;49.732;20.078;2022-10-16T07:32:11;19.70;;;9.90;;
24301;SDS011;12421;49.732;20.078;2022-10-16T07:42:15;10.40;;;6.50;;
24301;SDS011;12421;49.732;20.078;2022-10-16T07:52:20;9.30;;;7.00;;
24301;SDS011;12421;49.732;20.078;2022-10-16T08:02:24;13.10;;;8.70;;
24301;SDS011;12421;49.732;20.078;2022-10-16T08:12:27;9.10;;;6.30;;
24301;SDS011;12421;49.732;20.078;2022-10-16T08:22:31;10.50;;;6.50;;
24301;SDS011;12421;49.732;20.078;2022-10-16T08:32:35;9.80;;;7.30;;
24301;SDS011;12421;49.732;20.078;2022-10-16T08:52:49;9.70;;;6.00;;
24301;SDS011;12421;49.732;20.078;2022-10-16T09:03:03;6.50;;;5.30;;
24301;SDS011;12421;49.732;20.078;2022-10-16T09:23:36;8.00;;;5.70;;
24301;SDS011;12421;49.732;20.078;2022-10-16T09:33:41;9.00;;;6.10;;
24301;SDS011;12421;49.732;20.078;2022-10-16T09:53:53;6.50;;;5.10;;
24301;SDS011;12421;49.732;20.078;2022-10-16T10:04:02;9.80;;;6.10;;
24301;SDS011;12421;49.732;20.078;2022-10-16T10:25:37;8.10;;;6.30;;
24301;SDS011;12421;49.732;20.078;2022-10-16T10:45:54;16.00;;;6.20;;
24301;SDS011;12421;49.732;20.078;2022-10-16T10:56:09;5.90;;;5.10;;
24301;SDS011;12421;49.732;20.078;2022-10-16T11:16:59;7.90;;;4.80;;
24301;SDS011;12421;49.732;20.078;2022-10-16T11:28:17;6.00;;;5.00;;
24301;SDS011;12421;49.732;20.078;2022-10-16T11:38:15;8.00;;;5.00;;
24301;SDS011;12421;49.732;20.078;2022-10-16T12:08:53;6.70;;;5.10;;
24301;SDS011;12421;49.732;20.078;2022-10-16T12:39:27;6.70;;;4.40;;
24301;SDS011;12421;49.732;20.078;2022-10-16T12:49:34;7.10;;;5.00;;
24301;SDS011;12421;49.732;20.078;2022-10-16T12:59:44;7.00;;;4.90;;
24301;SDS011;12421;49.732;20.078;2022-10-16T13:20:27;10.50;;;4.70;;
24301;SDS011;12421;49.732;20.078;2022-10-16T13:30:53;7.80;;;5.10;;
24301;SDS011;12421;49.732;20.078;2022-10-16T13:41:04;11.30;;;5.00;;
24301;SDS011;12421;49.732;20.078;2022-10-16T13:51:17;7.10;;;4.70;;
24301;SDS011;12421;49.732;20.078;2022-10-16T14:01:27;7.30;;;4.80;;
24301;SDS011;12421;49.732;20.078;2022-10-16T14:11:37;7.70;;;5.30;;
24301;SDS011;12421;49.732;20.078;2022-10-16T14:21:50;8.00;;;5.50;;
24301;SDS011;12421;49.732;20.078;2022-10-16T14:31:56;10.40;;;5.90;;
24301;SDS011;12421;49.732;20.078;2022-10-16T14:42:03;10.50;;;5.40;;
24301;SDS011;12421;49.732;20.078;2022-10-16T14:52:10;10.70;;;8.10;;
24301;SDS011;12421;49.732;20.078;2022-10-16T15:02:18;10.20;;;6.20;;
24301;SDS011;12421;49.732;20.078;2022-10-16T15:12:29;8.20;;;5.50;;
24301;SDS011;12421;49.732;20.078;2022-10-16T15:22:33;7.30;;;5.70;;
24301;SDS011;12421;49.732;20.078;2022-10-16T15:32:37;10.10;;;5.60;;
24301;SDS011;12421;49.732;20.078;2022-10-16T15:42:41;9.10;;;6.10;;
24301;SDS011;12421;49.732;20.078;2022-10-16T15:52:46;8.40;;;6.00;;
24301;SDS011;12421;49.732;20.078;2022-10-16T16:02:53;11.50;;;7.00;;
24301;SDS011;12421;49.732;20.078;2022-10-16T16:12:59;9.80;;;6.80;;
24301;SDS011;12421;49.732;20.078;2022-10-16T16:23:03;10.60;;;7.10;;
24301;SDS011;12421;49.732;20.078;2022-10-16T16:33:08;7.20;;;5.70;;
24301;SDS011;12421;49.732;20.078;2022-10-16T16:43:12;10.50;;;7.50;;
24301;SDS011;12421;49.732;20.078;2022-10-16T16:53:17;10.50;;;8.30;;
24301;SDS011;12421;49.732;20.078;2022-10-16T17:03:22;13.20;;;8.70;;
24301;SDS011;12421;49.732;20.078;2022-10-16T17:13:29;14.10;;;10.60;;
24301;SDS011;12421;49.732;20.078;2022-10-16T17:23:36;17.90;;;10.80;;
24301;SDS011;12421;49.732;20.078;2022-10-16T17:33:43;20.00;;;12.70;;
24301;SDS011;12421;49.732;20.078;2022-10-16T17:43:51;17.80;;;11.10;;
24301;SDS011;12421;49.732;20.078;2022-10-16T17:53:57;20.40;;;12.10;;
24301;SDS011;12421;49.732;20.078;2022-10-16T18:04:06;17.20;;;11.80;;
24301;SDS011;12421;49.732;20.078;2022-10-16T18:14:14;20.30;;;12.20;;
24301;SDS011;12421;49.732;20.078;2022-10-16T18:24:23;21.20;;;14.20;;
24301;SDS011;12421;49.732;20.078;2022-10-16T18:34:30;17.20;;;12.20;;
24301;SDS011;12421;49.732;20.078;2022-10-16T18:44:35;15.40;;;10.00;;
24301;SDS011;12421;49.732;20.078;2022-10-16T18:54:40;25.20;;;11.40;;
24301;SDS011;12421;49.732;20.078;2022-10-16T19:04:45;18.30;;;12.20;;
24301;SDS011;12421;49.732;20.078;2022-10-16T19:14:49;17.30;;;12.60;;
24301;SDS011;12421;49.732;20.078;2022-10-16T19:24:53;24.70;;;13.90;;
24301;SDS011;12421;49.732;20.078;2022-10-16T19:34:58;19.90;;;13.10;;
24301;SDS011;12421;49.732;20.078;2022-10-16T19:45:05;21.90;;;13.30;;
24301;SDS011;12421;49.732;20.078;2022-10-16T19:55:10;20.10;;;12.20;;
24301;SDS011;12421;49.732;20.078;2022-10-16T20:05:13;16.30;;;11.30;;
24301;SDS011;12421;49.732;20.078;2022-10-16T20:15:18;19.30;;;11.10;;
24301;SDS011;12421;49.732;20.078;2022-10-16T20:25:23;18.90;;;12.30;;
24301;SDS011;12421;49.732;20.078;2022-10-16T20:35:27;16.30;;;10.20;;
24301;SDS011;12421;49.732;20.078;2022-10-16T20:45:30;17.30;;;10.30;;
24301;SDS011;12421;49.732;20.078;2022-10-16T20:55:36;22.50;;;12.20;;
24301;SDS011;12421;49.732;20.078;2022-10-16T21:05:41;21.50;;;10.80;;
24301;SDS011;12421;49.732;20.078;2022-10-16T21:15:44;17.70;;;10.20;;
24301;SDS011;12421;49.732;20.078;2022-10-16T21:25:48;16.70;;;10.50;;
24301;SDS011;12421;49.732;20.078;2022-10-16T21:35:53;19.70;;;12.00;;
24301;SDS011;12421;49.732;20.078;2022-10-16T21:45:57;20.10;;;12.30;;
24301;SDS011;12421;49.732;20.078;2022-10-16T21:56:00;29.80;;;11.90;;
24301;SDS011;12421;49.732;20.078;2022-10-16T22:06:05;18.50;;;12.10;;
24301;SDS011;12421;49.732;20.078;2022-10-16T22:16:10;20.70;;;12.70;;
24301;SDS011;12421;49.732;20.078;2022-10-16T22:26:14;16.80;;;10.30;;
24301;SDS011;12421;49.732;20.078;2022-10-16T22:36:18;13.00;;;9.80;;
24301;SDS011;12421;49.732;20.078;2022-10-16T22:46:22;19.00;;;10.30;;
24301;SDS011;12421;49.732;20.078;2022-10-16T22:56:28;13.50;;;10.40;;
24301;SDS011;12421;49.732;20.078;2022-10-16T23:06:31;14.30;;;10.70;;
24301;SDS011;12421;49.732;20.078;2022-10-16T23:16:36;19.80;;;12.70;;
24301;SDS011;12421;49.732;20.078;2022-10-16T23:26:40;18.60;;;11.00;;
24301;SDS011;12421;49.732;20.078;2022-10-16T23:36:44;16.50;;;9.90;;
24301;SDS011;12421;49.732;20.078;2022-10-16T23:46:47;13.20;;;9.70;;
24301;SDS011;12421;49.732;20.078;2022-10-16T23:56:51;13.70;;;9.70;;
